Time;durP1;ratioP1;P1;durP2;ratioP2;P2;SDS_P1;SDS_P2;PMS_P1;PMS_P2;Temp;Humidity;BMP_temperature;BMP_pressure;BME280_temperature;BME280_humidity;BME280_pressure;Samples;Min_cycle;Max_cycle;Signal;HPM_P1;HPM_P2
2023/06/09 00:00:47;;;;;;;9.48;3.35;;;20.30;52.40;;;;;;5032888;28;20144;-68
2023/06/09 00:03:16;;;;;;;9.00;3.67;;;20.20;52.40;;;;;;5036423;28;20132;-69
2023/06/09 00:05:42;;;;;;;7.85;3.47;;;20.20;52.50;;;;;;5033759;28;20045;-68
2023/06/09 00:08:08;;;;;;;10.38;3.50;;;20.20;52.50;;;;;;5014552;28;20029;-69
2023/06/09 00:10:34;;;;;;;9.77;3.50;;;20.20;52.60;;;;;;5026072;28;20022;-68
2023/06/09 00:13:00;;;;;;;7.35;2.92;;;20.20;52.70;;;;;;5035661;28;20399;-68
2023/06/09 00:15:26;;;;;;;8.05;3.30;;;20.20;52.80;;;;;;5034418;28;20045;-68
2023/06/09 00:17:53;;;;;;;10.55;3.50;;;20.10;52.80;;;;;;5029509;28;20037;-68
2023/06/09 00:20:19;;;;;;;8.50;3.05;;;20.10;52.90;;;;;;5032927;28;20037;-68
2023/06/09 00:22:45;;;;;;;11.25;4.00;;;20.10;52.90;;;;;;5027581;28;20018;-69
2023/06/09 00:25:12;;;;;;;7.10;3.15;;;20.00;52.90;;;;;;5004599;28;20018;-68
2023/06/09 00:27:39;;;;;;;8.63;3.50;;;20.00;53.00;;;;;;5013011;28;20028;-69
2023/06/09 00:30:07;;;;;;;9.23;3.58;;;20.00;53.00;;;;;;5034877;28;20123;-69
2023/06/09 00:32:33;;;;;;;8.85;3.33;;;20.00;53.00;;;;;;5022774;28;20032;-68
2023/06/09 00:34:59;;;;;;;8.60;3.83;;;20.00;53.00;;;;;;5028298;28;20064;-68
2023/06/09 00:37:24;;;;;;;9.45;3.70;;;20.00;53.70;;;;;;5029097;28;20069;-68
2023/06/09 00:39:50;;;;;;;9.32;3.90;;;20.00;53.10;;;;;;5013598;28;20028;-68
2023/06/09 00:42:16;;;;;;;9.68;3.00;;;20.00;53.70;;;;;;5028551;28;20025;-69
2023/06/09 00:44:42;;;;;;;9.10;3.35;;;20.00;53.10;;;;;;5014155;28;20060;-69
2023/06/09 00:47:08;;;;;;;8.88;3.72;;;19.90;53.00;;;;;;5029746;28;20032;-68
2023/06/09 00:49:35;;;;;;;10.90;4.03;;;19.90;53.00;;;;;;5024545;28;20395;-68
2023/06/09 00:52:01;;;;;;;9.45;3.72;;;19.90;53.00;;;;;;5034452;28;20034;-68
2023/06/09 00:54:28;;;;;;;8.75;3.45;;;19.90;53.10;;;;;;5020319;28;20084;-68
2023/06/09 00:56:55;;;;;;;12.60;4.25;;;19.90;53.10;;;;;;5029513;28;20461;-69
2023/06/09 00:59:21;;;;;;;11.85;3.70;;;19.90;53.10;;;;;;5026765;28;20053;-68
2023/06/09 01:01:48;;;;;;;7.75;3.08;;;19.90;53.20;;;;;;5030785;28;20434;-68
2023/06/09 01:04:13;;;;;;;8.95;3.65;;;19.90;53.30;;;;;;5006964;28;20025;-68
2023/06/09 01:07:08;;;;;;;11.88;3.38;;;19.90;53.40;;;;;;5006772;28;20477;-68
2023/06/09 01:09:57;;;;;;;9.63;3.05;;;19.80;53.50;;;;;;5028665;28;20026;-69
2023/06/09 01:13:07;;;;;;;9.40;3.40;;;19.80;53.60;;;;;;5031849;28;20060;-68
2023/06/09 01:15:37;;;;;;;8.45;3.25;;;19.80;53.70;;;;;;5031197;28;20328;-69
2023/06/09 01:18:08;;;;;;;10.27;3.53;;;19.80;53.80;;;;;;5024959;28;20032;-68
2023/06/09 01:20:49;;;;;;;10.43;3.75;;;19.70;53.80;;;;;;5016597;28;20036;-69
2023/06/09 01:23:44;;;;;;;8.80;3.53;;;19.70;53.90;;;;;;5025506;28;20022;-68
2023/06/09 01:26:11;;;;;;;10.07;4.05;;;19.70;53.90;;;;;;5032400;28;20328;-68
2023/06/09 01:32:03;;;;;;;10.93;3.38;;;19.60;54.00;;;;;;5021916;28;20033;-68
2023/06/09 01:34:30;;;;;;;11.77;3.58;;;19.60;54.20;;;;;;5034509;28;20034;-68
2023/06/09 01:36:57;;;;;;;10.18;3.45;;;19.50;54.30;;;;;;5015482;28;20040;-68
2023/06/09 01:39:24;;;;;;;7.05;2.75;;;19.50;54.40;;;;;;5028957;28;20463;-68
2023/06/09 01:41:49;;;;;;;8.68;3.53;;;19.50;54.50;;;;;;5032558;28;20427;-68
2023/06/09 01:44:15;;;;;;;9.98;3.60;;;19.50;54.60;;;;;;5017253;28;20154;-69
2023/06/09 01:46:41;;;;;;;12.82;3.80;;;19.50;54.70;;;;;;5024196;28;20531;-69
2023/06/09 01:49:29;;;;;;;10.93;3.75;;;19.40;54.70;;;;;;5031253;28;20037;-69
2023/06/09 01:52:08;;;;;;;10.63;3.22;;;19.40;54.80;;;;;;5027325;28;20030;-68
2023/06/09 01:54:54;;;;;;;9.63;3.88;;;19.40;55.50;;;;;;5021177;28;20453;-68
2023/06/09 01:58:04;;;;;;;9.88;3.90;;;19.40;55.00;;;;;;5028558;28;20070;-69
2023/06/09 02:00:31;;;;;;;8.77;3.50;;;19.40;55.00;;;;;;5022007;28;20029;-68
2023/06/09 02:03:00;;;;;;;8.95;3.22;;;19.30;55.10;;;;;;5024020;28;20045;-68
2023/06/09 02:05:28;;;;;;;13.98;3.47;;;19.30;55.30;;;;;;5034279;28;20037;-68
2023/06/09 02:07:55;;;;;;;7.95;3.60;;;19.20;55.30;;;;;;5027490;28;20025;-69
2023/06/09 02:10:23;;;;;;;9.55;3.83;;;19.30;56.00;;;;;;5016663;28;20349;-68
2023/06/09 02:12:49;;;;;;;10.10;3.65;;;19.20;55.40;;;;;;5026794;28;20082;-68
2023/06/09 02:15:15;;;;;;;13.15;3.95;;;19.20;56.10;;;;;;5031115;28;20026;-68
2023/06/09 02:17:42;;;;;;;9.63;3.83;;;19.20;55.60;;;;;;5031544;28;20091;-68
2023/06/09 02:20:09;;;;;;;9.57;3.80;;;19.20;55.70;;;;;;5032415;28;20029;-68
2023/06/09 02:22:35;;;;;;;7.63;3.60;;;19.20;55.70;;;;;;5014167;28;20025;-68
2023/06/09 02:25:03;;;;;;;10.30;3.63;;;19.10;55.70;;;;;;5024658;28;20048;-68
2023/06/09 02:27:29;;;;;;;9.35;4.10;;;19.10;55.90;;;;;;5026509;28;20398;-68
2023/06/09 02:29:55;;;;;;;10.40;3.63;;;19.10;55.90;;;;;;5026025;28;20037;-68
2023/06/09 02:32:20;;;;;;;9.60;3.97;;;19.10;56.00;;;;;;5031834;28;20131;-68
2023/06/09 02:34:46;;;;;;;11.93;4.07;;;19.00;55.90;;;;;;5027269;28;20073;-68
2023/06/09 02:37:13;;;;;;;8.63;3.20;;;19.00;56.00;;;;;;5051824;28;20120;-68
2023/06/09 02:39:38;;;;;;;9.25;3.83;;;19.00;56.10;;;;;;5011220;28;20487;-68
2023/06/09 02:42:05;;;;;;;12.07;3.58;;;19.00;56.10;;;;;;5052672;28;20053;-68
2023/06/09 02:44:36;;;;;;;11.02;3.95;;;18.90;56.10;;;;;;5043438;28;20044;-68
2023/06/09 02:47:04;;;;;;;10.68;3.88;;;18.90;56.20;;;;;;5040266;28;20025;-68
2023/06/09 02:49:30;;;;;;;11.15;4.03;;;18.90;56.30;;;;;;5027552;28;20026;-68
2023/06/09 02:51:56;;;;;;;8.45;3.70;;;18.80;56.30;;;;;;5039851;28;20138;-68
2023/06/09 02:54:23;;;;;;;8.38;3.13;;;18.80;56.40;;;;;;5031218;28;20079;-68
2023/06/09 02:56:51;;;;;;;11.65;4.45;;;18.80;56.40;;;;;;5034433;28;20494;-68
2023/06/09 02:59:17;;;;;;;11.55;3.80;;;18.70;56.40;;;;;;5025096;28;20245;-68
2023/06/09 03:01:44;;;;;;;8.50;3.95;;;18.70;56.50;;;;;;5031276;28;20509;-68
2023/06/09 03:04:11;;;;;;;10.55;3.75;;;18.70;56.60;;;;;;5033797;28;20462;-68
2023/06/09 03:06:43;;;;;;;9.65;3.95;;;18.70;56.70;;;;;;5030354;28;20041;-68
2023/06/09 03:09:11;;;;;;;9.65;4.32;;;18.70;56.70;;;;;;5013772;28;20022;-68
2023/06/09 03:11:38;;;;;;;9.68;4.35;;;18.70;56.80;;;;;;5032511;28;20122;-68
2023/06/09 03:14:04;;;;;;;8.68;3.70;;;18.70;56.80;;;;;;5025978;28;20474;-68
2023/06/09 03:16:30;;;;;;;11.15;3.53;;;18.60;56.80;;;;;;5018370;28;20048;-68
2023/06/09 03:18:57;;;;;;;9.65;3.85;;;18.60;56.90;;;;;;5025547;28;20115;-68
2023/06/09 03:21:24;;;;;;;9.95;4.07;;;18.60;56.90;;;;;;5033264;28;20041;-68
2023/06/09 03:23:51;;;;;;;14.90;4.80;;;18.60;56.90;;;;;;5017708;28;20163;-68
2023/06/09 03:26:18;;;;;;;9.90;3.78;;;18.60;56.90;;;;;;5035714;28;20057;-68
2023/06/09 03:28:44;;;;;;;11.73;4.45;;;18.60;57.00;;;;;;5016125;28;20111;-68
2023/06/09 03:31:13;;;;;;;9.57;4.13;;;18.60;57.00;;;;;;5021538;28;20028;-68
2023/06/09 03:33:39;;;;;;;11.43;4.13;;;18.60;57.70;;;;;;5035019;28;20387;-69
2023/06/09 03:36:05;;;;;;;11.10;4.60;;;18.60;57.20;;;;;;5028121;28;20057;-68
2023/06/09 03:38:31;;;;;;;12.30;3.83;;;18.50;57.20;;;;;;5018406;28;20037;-68
2023/06/09 03:40:57;;;;;;;10.20;3.40;;;18.50;57.20;;;;;;5025069;28;20039;-68
2023/06/09 03:43:23;;;;;;;11.50;3.72;;;18.50;57.30;;;;;;5028886;28;20034;-68
2023/06/09 03:45:49;;;;;;;12.13;4.50;;;18.50;57.40;;;;;;5030049;28;20030;-68
2023/06/09 03:48:16;;;;;;;9.18;3.80;;;18.50;57.40;;;;;;5033603;28;20083;-68
2023/06/09 03:50:43;;;;;;;9.32;3.63;;;18.50;57.40;;;;;;5009990;28;20041;-68
2023/06/09 03:53:10;;;;;;;10.05;4.35;;;18.50;57.50;;;;;;5032795;28;20472;-68
2023/06/09 03:55:38;;;;;;;10.40;4.00;;;18.50;57.50;;;;;;5034337;28;20108;-68
2023/06/09 03:58:05;;;;;;;10.45;4.03;;;18.50;57.60;;;;;;5043017;28;20018;-68
2023/06/09 04:00:32;;;;;;;7.75;3.97;;;18.50;57.70;;;;;;5031643;28;20025;-68
2023/06/09 04:02:59;;;;;;;10.20;4.07;;;18.60;57.70;;;;;;5029563;28;20358;-68
2023/06/09 04:05:26;;;;;;;14.52;4.45;;;18.50;57.70;;;;;;5027350;28;20034;-68
2023/06/09 04:07:52;;;;;;;10.57;4.03;;;18.50;57.80;;;;;;5033701;28;20026;-68
2023/06/09 04:10:18;;;;;;;9.63;3.80;;;18.50;57.80;;;;;;5016444;28;20101;-68
2023/06/09 04:12:44;;;;;;;11.30;4.22;;;18.50;57.80;;;;;;5010855;28;20057;-68
2023/06/09 04:15:11;;;;;;;13.05;4.25;;;18.50;57.90;;;;;;5027468;28;20025;-68
2023/06/09 04:17:41;;;;;;;10.35;4.05;;;18.50;58.00;;;;;;5031775;28;20087;-68
2023/06/09 04:20:08;;;;;;;9.55;4.10;;;18.50;58.00;;;;;;5033989;28;20022;-68
2023/06/09 04:22:35;;;;;;;9.95;4.45;;;18.50;58.10;;;;;;5029271;28;20025;-68
2023/06/09 04:25:01;;;;;;;10.32;4.30;;;18.50;58.20;;;;;;5033225;28;20022;-68
2023/06/09 04:27:30;;;;;;;10.48;4.13;;;18.50;58.20;;;;;;5031766;28;20026;-68
2023/06/09 04:29:57;;;;;;;10.18;5.15;;;18.50;58.30;;;;;;5033687;28;20057;-68
2023/06/09 04:32:23;;;;;;;9.50;4.43;;;18.50;58.40;;;;;;5014278;28;20033;-68
2023/06/09 04:34:50;;;;;;;11.90;4.25;;;18.60;58.50;;;;;;5030383;28;20448;-68
2023/06/09 04:37:16;;;;;;;11.88;4.13;;;18.50;58.50;;;;;;5005663;28;20076;-68
2023/06/09 04:39:45;;;;;;;9.75;4.03;;;18.60;58.60;;;;;;5032684;28;20104;-68
2023/06/09 04:42:14;;;;;;;12.98;4.55;;;18.60;58.70;;;;;;5031325;28;20140;-68
2023/06/09 04:44:41;;;;;;;10.95;4.75;;;18.60;58.70;;;;;;5012541;28;20347;-68
2023/06/09 04:47:07;;;;;;;12.35;5.32;;;18.60;58.70;;;;;;5007395;28;20032;-67
2023/06/09 04:49:35;;;;;;;12.45;4.55;;;18.70;58.80;;;;;;5033653;28;20036;-68
2023/06/09 04:52:02;;;;;;;10.10;3.88;;;18.70;58.80;;;;;;5029485;28;20074;-67
2023/06/09 04:54:34;;;;;;;10.35;4.20;;;18.70;58.90;;;;;;5006725;28;20091;-67
2023/06/09 04:57:05;;;;;;;11.43;4.75;;;18.70;58.90;;;;;;5029653;28;20049;-66
2023/06/09 04:59:31;;;;;;;12.23;5.15;;;18.70;58.90;;;;;;5029518;28;20403;-66
2023/06/09 05:01:58;;;;;;;12.38;4.90;;;18.80;59.00;;;;;;5031646;28;20031;-66
2023/06/09 05:04:24;;;;;;;10.65;4.15;;;18.80;58.80;;;;;;5023330;28;21564;-67
2023/06/09 05:06:52;;;;;;;11.30;4.10;;;18.90;58.90;;;;;;5033424;28;20139;-67
2023/06/09 05:09:17;;;;;;;11.95;4.95;;;18.90;58.80;;;;;;5034953;28;20029;-67
2023/06/09 05:11:43;;;;;;;11.52;4.78;;;19.00;58.90;;;;;;5033951;28;20032;-67
2023/06/09 05:14:11;;;;;;;10.88;4.30;;;19.00;58.70;;;;;;5027941;28;20049;-66
2023/06/09 05:16:38;;;;;;;10.48;4.45;;;19.10;58.70;;;;;;5019331;28;20029;-67
2023/06/09 05:19:06;;;;;;;12.05;4.53;;;19.20;58.60;;;;;;5026296;28;20026;-67
2023/06/09 05:21:32;;;;;;;15.57;5.07;;;19.30;58.40;;;;;;5034758;28;20024;-64
2023/06/09 05:23:58;;;;;;;11.10;4.82;;;19.40;58.40;;;;;;5032528;28;20365;-64
2023/06/09 05:26:25;;;;;;;11.05;4.60;;;19.50;58.20;;;;;;5028538;28;20025;-64
2023/06/09 05:28:51;;;;;;;11.57;4.43;;;19.60;58.00;;;;;;5017464;28;20040;-64
2023/06/09 05:31:18;;;;;;;10.80;5.10;;;19.70;57.90;;;;;;5033854;28;20022;-63
2023/06/09 05:33:44;;;;;;;12.25;4.38;;;19.80;57.80;;;;;;5031970;28;20032;-64
2023/06/09 05:36:12;;;;;;;13.20;5.10;;;19.90;57.70;;;;;;5030085;28;20029;-65
2023/06/09 05:38:42;;;;;;;11.50;4.80;;;19.90;57.50;;;;;;5029848;28;20026;-66
2023/06/09 05:41:08;;;;;;;13.35;5.40;;;20.00;57.50;;;;;;5034654;28;20469;-65
2023/06/09 05:43:34;;;;;;;11.98;5.60;;;20.10;57.50;;;;;;5033178;28;20327;-67
2023/06/09 05:46:00;;;;;;;11.20;4.95;;;20.20;57.30;;;;;;5033271;28;20022;-66
2023/06/09 05:48:25;;;;;;;11.68;4.90;;;20.30;57.30;;;;;;5022521;28;20042;-65
2023/06/09 05:50:51;;;;;;;12.15;4.25;;;20.30;57.20;;;;;;5029571;28;20057;-65
2023/06/09 05:53:17;;;;;;;10.05;5.10;;;20.40;57.20;;;;;;5033504;28;20124;-67
2023/06/09 05:55:46;;;;;;;10.45;4.68;;;20.50;57.70;;;;;;5032144;28;20079;-64
2023/06/09 05:58:14;;;;;;;12.82;5.47;;;20.50;57.00;;;;;;5025944;28;20037;-64
2023/06/09 06:00:40;;;;;;;12.73;5.15;;;20.60;56.90;;;;;;5002823;28;20029;-68
2023/06/09 06:03:08;;;;;;;11.30;5.38;;;20.60;56.80;;;;;;5016976;28;20041;-68
2023/06/09 06:05:33;;;;;;;11.85;5.13;;;20.70;56.80;;;;;;5027866;28;20041;-67
2023/06/09 06:08:00;;;;;;;13.80;5.38;;;20.80;56.60;;;;;;5028489;28;20025;-69
2023/06/09 06:10:26;;;;;;;10.93;5.45;;;20.80;56.50;;;;;;5022272;28;20034;-68
2023/06/09 06:12:53;;;;;;;13.18;5.18;;;21.00;56.40;;;;;;5031142;28;20112;-67
2023/06/09 06:15:19;;;;;;;9.95;4.63;;;21.00;56.20;;;;;;5019646;28;20362;-67
2023/06/09 06:17:45;;;;;;;10.20;5.35;;;21.00;56.30;;;;;;5026816;28;20037;-67
2023/06/09 06:20:12;;;;;;;14.07;5.15;;;21.10;56.30;;;;;;5031550;28;20036;-67
2023/06/09 06:22:39;;;;;;;12.70;5.75;;;21.20;56.20;;;;;;5028035;28;20362;-66
2023/06/09 06:25:05;;;;;;;10.50;5.03;;;21.20;56.10;;;;;;5028953;28;20378;-66
2023/06/09 06:27:31;;;;;;;10.63;5.47;;;21.30;55.90;;;;;;5027158;28;20160;-66
2023/06/09 06:29:56;;;;;;;13.10;5.55;;;21.40;55.80;;;;;;5032792;28;20029;-66
2023/06/09 06:32:22;;;;;;;9.85;4.95;;;21.50;55.80;;;;;;5033697;28;20116;-67
2023/06/09 06:34:48;;;;;;;10.68;5.28;;;21.60;55.60;;;;;;5033404;28;20037;-66
2023/06/09 06:37:14;;;;;;;11.48;5.97;;;21.80;55.50;;;;;;5033802;28;20312;-67
2023/06/09 06:39:40;;;;;;;9.90;4.78;;;21.90;55.40;;;;;;5033313;28;20033;-67
2023/06/09 06:42:06;;;;;;;9.70;5.10;;;22.10;55.20;;;;;;5016089;28;20073;-67
2023/06/09 06:44:46;;;;;;;33.20;24.70;;;22.20;55.10;;;;;;5031331;28;20473;-67
2023/06/09 06:47:12;;;;;;;23.90;14.98;;;22.40;54.80;;;;;;5031370;28;20034;-66
2023/06/09 06:49:37;;;;;;;16.05;9.98;;;22.40;54.50;;;;;;5031938;28;20022;-66
2023/06/09 06:52:04;;;;;;;13.07;7.63;;;22.60;54.40;;;;;;5033283;28;20492;-66
2023/06/09 06:54:29;;;;;;;13.77;6.57;;;22.70;54.20;;;;;;5027146;28;20043;-67
2023/06/09 06:56:55;;;;;;;20.55;13.25;;;22.80;54.00;;;;;;5034266;28;20108;-66
2023/06/09 06:59:21;;;;;;;18.48;10.73;;;22.90;53.80;;;;;;5032795;28;20025;-67
2023/06/09 07:01:48;;;;;;;19.35;11.20;;;23.00;53.50;;;;;;5033227;28;20040;-66
2023/06/09 07:04:13;;;;;;;17.08;11.05;;;23.10;53.30;;;;;;5031238;28;20026;-66
2023/06/09 07:06:39;;;;;;;15.05;8.82;;;23.20;53.20;;;;;;5033792;28;20041;-66
2023/06/09 07:09:05;;;;;;;12.35;6.30;;;23.30;53.00;;;;;;5033067;28;20033;-66
2023/06/09 07:11:32;;;;;;;11.95;5.88;;;23.50;52.90;;;;;;5034189;28;20025;-66
2023/06/09 07:13:58;;;;;;;12.60;5.65;;;23.60;52.70;;;;;;5033291;28;20508;-66
2023/06/09 07:16:24;;;;;;;12.77;6.25;;;23.70;52.50;;;;;;5032461;28;20462;-67
2023/06/09 07:18:50;;;;;;;10.05;5.70;;;23.90;52.30;;;;;;4999494;28;20034;-67
2023/06/09 07:21:16;;;;;;;11.77;5.93;;;24.00;52.10;;;;;;5032775;28;20449;-66
2023/06/09 07:23:41;;;;;;;12.10;5.60;;;24.10;51.80;;;;;;5015512;28;20342;-66
2023/06/09 07:26:07;;;;;;;10.70;5.43;;;24.20;51.60;;;;;;5013387;28;20549;-66
2023/06/09 07:28:33;;;;;;;10.75;5.32;;;24.30;51.50;;;;;;5029746;28;20074;-67
2023/06/09 07:30:59;;;;;;;10.18;5.32;;;24.50;51.30;;;;;;5006023;28;20459;-67
2023/06/09 07:33:24;;;;;;;11.45;5.57;;;24.70;51.20;;;;;;5019723;28;20037;-66
2023/06/09 07:35:52;;;;;;;10.10;5.05;;;24.80;51.00;;;;;;5014097;28;20022;-66
2023/06/09 07:38:20;;;;;;;10.23;4.95;;;24.90;50.70;;;;;;5033309;28;20037;-66
2023/06/09 07:40:46;;;;;;;9.68;5.68;;;25.10;50.50;;;;;;5033239;28;20099;-66
2023/06/09 07:43:12;;;;;;;12.23;5.38;;;25.30;50.30;;;;;;5037103;28;20026;-66
2023/06/09 07:45:38;;;;;;;12.10;5.97;;;25.40;50.10;;;;;;5029495;28;20146;-67
2023/06/09 07:48:03;;;;;;;11.52;5.47;;;25.50;50.00;;;;;;5030153;28;20403;-67
2023/06/09 07:50:29;;;;;;;9.98;5.85;;;25.60;49.80;;;;;;5033676;28;20526;-66
2023/06/09 07:52:55;;;;;;;9.65;5.30;;;25.70;49.60;;;;;;5035762;28;20061;-66
2023/06/09 07:55:21;;;;;;;10.13;5.53;;;25.70;49.40;;;;;;5031934;28;20033;-66
2023/06/09 07:57:46;;;;;;;12.70;5.18;;;25.90;49.30;;;;;;5034687;28;20048;-66
2023/06/09 08:00:13;;;;;;;10.88;5.75;;;26.00;49.30;;;;;;5018735;28;20032;-66
2023/06/09 08:02:42;;;;;;;9.32;4.88;;;26.10;49.20;;;;;;5037389;28;20451;-66
2023/06/09 08:05:08;;;;;;;10.60;5.88;;;26.20;48.90;;;;;;5035300;28;20072;-66
2023/06/09 08:07:34;;;;;;;11.02;5.75;;;26.30;48.90;;;;;;5018427;28;20045;-66
2023/06/09 08:10:00;;;;;;;9.50;5.10;;;26.30;48.70;;;;;;5033164;28;20124;-66
2023/06/09 08:12:26;;;;;;;10.27;5.25;;;26.50;48.60;;;;;;5035546;28;20132;-66
2023/06/09 08:14:52;;;;;;;9.88;5.15;;;26.60;48.50;;;;;;5035124;28;20033;-66
2023/06/09 08:17:17;;;;;;;10.20;5.55;;;26.60;48.30;;;;;;5028792;28;20029;-66
2023/06/09 08:19:43;;;;;;;13.18;5.88;;;26.70;48.20;;;;;;5030300;28;20435;-66
2023/06/09 08:22:09;;;;;;;11.88;5.75;;;26.80;48.20;;;;;;5028088;28;20080;-66
2023/06/09 08:24:34;;;;;;;12.13;5.53;;;26.90;48.10;;;;;;5035348;28;20037;-66
2023/06/09 08:27:00;;;;;;;12.10;5.40;;;26.90;48.00;;;;;;5032028;28;20025;-66
2023/06/09 08:29:26;;;;;;;9.85;5.38;;;27.00;47.90;;;;;;5023220;28;20026;-66
2023/06/09 08:31:52;;;;;;;10.57;5.93;;;27.10;47.80;;;;;;5035440;28;20524;-65
2023/06/09 08:34:17;;;;;;;11.45;6.15;;;27.20;47.70;;;;;;5033018;28;20033;-66
2023/06/09 08:36:43;;;;;;;9.15;4.90;;;27.20;47.60;;;;;;5027168;28;20080;-66
2023/06/09 08:39:09;;;;;;;9.27;5.22;;;27.30;47.60;;;;;;5030943;28;20033;-67
2023/06/09 08:41:40;;;;;;;11.98;5.20;;;27.40;47.60;;;;;;5037650;28;20026;-67
2023/06/09 08:44:06;;;;;;;9.48;5.50;;;27.50;47.60;;;;;;5034217;28;20096;-67
2023/06/09 08:46:35;;;;;;;10.35;5.40;;;27.60;47.40;;;;;;5034983;28;20477;-66
2023/06/09 08:49:02;;;;;;;9.25;5.65;;;27.70;47.40;;;;;;5030052;28;20029;-66
2023/06/09 08:51:28;;;;;;;10.57;5.65;;;27.80;47.30;;;;;;5035124;28;20021;-66
2023/06/09 08:53:55;;;;;;;9.82;5.25;;;27.80;47.10;;;;;;5026806;28;20033;-66
2023/06/09 08:56:21;;;;;;;9.32;5.13;;;27.90;47.10;;;;;;5036042;28;20100;-66
2023/06/09 08:58:52;;;;;;;11.45;5.57;;;28.00;47.00;;;;;;5030155;28;20036;-66
2023/06/09 09:01:20;;;;;;;9.02;5.03;;;28.10;46.80;;;;;;5034906;28;20053;-66
2023/06/09 09:03:50;;;;;;;9.52;5.43;;;28.20;46.80;;;;;;5026104;28;20456;-66
2023/06/09 09:06:16;;;;;;;9.57;5.67;;;28.30;46.40;;;;;;5018148;28;20044;-66
2023/06/09 09:08:46;;;;;;;8.70;4.97;;;28.40;46.40;;;;;;5027371;28;20380;-66
2023/06/09 09:11:13;;;;;;;10.40;5.38;;;28.40;46.40;;;;;;5034622;28;20090;-66
2023/06/09 09:13:40;;;;;;;9.15;4.90;;;28.50;46.10;;;;;;5032950;28;20033;-66
2023/06/09 09:16:15;;;;;;;10.15;5.80;;;28.60;46.10;;;;;;5035964;28;20029;-67
2023/06/09 09:18:46;;;;;;;12.85;5.68;;;28.70;45.90;;;;;;5030373;28;20036;-67
2023/06/09 09:21:24;;;;;;;10.38;5.32;;;28.80;45.90;;;;;;5034171;28;20458;-67
2023/06/09 09:24:03;;;;;;;10.02;5.68;;;28.90;45.80;;;;;;5033531;28;20037;-67
2023/06/09 09:26:30;;;;;;;11.00;5.32;;;29.00;45.70;;;;;;5034914;28;20040;-67
2023/06/09 09:29:01;;;;;;;9.40;5.03;;;29.10;45.70;;;;;;5028962;28;20358;-67
2023/06/09 09:31:32;;;;;;;7.88;4.40;;;29.20;45.50;;;;;;5026202;28;20026;-67
2023/06/09 09:33:59;;;;;;;12.52;5.95;;;29.30;45.50;;;;;;5038260;28;20037;-66
2023/06/09 09:36:26;;;;;;;9.98;5.68;;;29.40;45.30;;;;;;5017771;28;20091;-66
2023/06/09 09:38:55;;;;;;;12.50;5.57;;;29.50;45.10;;;;;;5026378;28;20050;-67
2023/06/09 09:41:21;;;;;;;10.00;5.50;;;29.50;44.80;;;;;;5034103;28;20091;-67
2023/06/09 09:43:46;;;;;;;8.60;4.85;;;29.60;44.90;;;;;;5017722;28;20034;-67
2023/06/09 09:46:12;;;;;;;10.55;5.80;;;29.70;44.90;;;;;;5037548;28;20025;-67
2023/06/09 09:48:39;;;;;;;10.25;5.43;;;29.70;44.80;;;;;;5034726;28;20100;-66
2023/06/09 09:51:06;;;;;;;9.07;5.32;;;29.80;44.80;;;;;;5022965;28;20042;-66
2023/06/09 09:53:32;;;;;;;10.50;5.03;;;29.80;44.70;;;;;;5028780;28;20391;-67
2023/06/09 09:56:02;;;;;;;8.45;5.18;;;30.00;44.70;;;;;;5023385;28;20511;-67
2023/06/09 09:58:31;;;;;;;14.00;5.55;;;30.00;44.40;;;;;;5032228;28;20033;-66
2023/06/09 10:01:04;;;;;;;9.43;4.85;;;30.10;44.50;;;;;;5033618;28;20029;-67
2023/06/09 10:03:33;;;;;;;9.10;4.97;;;30.20;44.30;;;;;;5022845;28;20034;-67
2023/06/09 10:06:03;;;;;;;9.30;5.90;;;30.30;44.20;;;;;;5029074;28;20041;-67
2023/06/09 10:08:31;;;;;;;9.38;5.20;;;30.30;43.80;;;;;;5031182;28;20059;-66
2023/06/09 10:10:59;;;;;;;8.82;5.05;;;30.40;43.70;;;;;;5032477;28;20357;-66
2023/06/09 10:13:27;;;;;;;8.02;4.25;;;30.50;44.30;;;;;;5034424;28;20059;-66
2023/06/09 10:15:53;;;;;;;9.30;4.88;;;30.60;43.50;;;;;;5029908;28;20041;-66
2023/06/09 10:18:20;;;;;;;8.73;4.68;;;30.60;43.40;;;;;;5034562;28;20030;-67
2023/06/09 10:20:48;;;;;;;7.07;4.28;;;30.60;43.10;;;;;;5032527;28;20102;-67
2023/06/09 10:23:15;;;;;;;8.73;4.15;;;30.70;43.00;;;;;;5033660;28;20033;-66
2023/06/09 10:25:41;;;;;;;7.68;4.45;;;30.70;42.90;;;;;;5032228;28;20025;-66
2023/06/09 10:28:09;;;;;;;8.23;3.75;;;30.80;42.40;;;;;;5033402;28;20041;-67
2023/06/09 10:30:36;;;;;;;9.55;4.22;;;30.90;42.20;;;;;;5031380;28;20029;-67
2023/06/09 10:33:09;;;;;;;10.48;4.45;;;31.00;42.10;;;;;;5016618;28;20033;-67
2023/06/09 10:35:37;;;;;;;9.55;4.60;;;31.00;41.90;;;;;;5031461;28;20021;-66
2023/06/09 10:38:30;;;;;;;9.18;4.15;;;31.10;41.80;;;;;;5033448;28;20458;-66
2023/06/09 10:41:32;;;;;;;6.95;4.07;;;31.10;41.40;;;;;;5027744;28;20037;-67
2023/06/09 10:44:04;;;;;;;9.07;3.97;;;31.20;41.40;;;;;;5022253;28;20353;-67
2023/06/09 10:46:41;;;;;;;8.32;4.65;;;31.20;41.10;;;;;;5025593;28;20036;-66
2023/06/09 10:49:07;;;;;;;6.75;3.53;;;31.20;40.70;;;;;;5034386;28;20033;-67
2023/06/09 10:51:40;;;;;;;8.02;4.40;;;31.30;40.90;;;;;;5031033;28;20120;-67
2023/06/09 10:54:15;;;;;;;11.68;4.80;;;31.30;40.80;;;;;;5016660;28;20083;-67
2023/06/09 10:56:52;;;;;;;10.10;4.93;;;31.30;40.50;;;;;;5028602;28;20470;-66
2023/06/09 10:59:24;;;;;;;8.18;4.43;;;31.30;40.50;;;;;;5033646;28;20398;-66
2023/06/09 11:02:11;;;;;;;8.25;4.65;;;31.30;40.40;;;;;;5031067;28;20108;-66
2023/06/09 11:04:46;;;;;;;7.53;4.55;;;31.30;40.30;;;;;;5033881;28;20056;-66
2023/06/09 11:07:19;;;;;;;8.15;4.57;;;31.40;40.30;;;;;;5023520;28;20478;-66
2023/06/09 11:09:49;;;;;;;8.23;4.15;;;31.40;39.90;;;;;;5036908;28;20041;-66
2023/06/09 11:12:28;;;;;;;7.20;4.20;;;31.40;40.00;;;;;;5037538;28;20431;-66
2023/06/09 11:14:58;;;;;;;7.70;4.03;;;31.50;40.10;;;;;;5030659;28;20030;-66
2023/06/09 11:17:42;;;;;;;7.63;3.75;;;31.50;40.00;;;;;;5027804;28;20040;-66
2023/06/09 11:20:20;;;;;;;7.20;4.38;;;31.50;39.90;;;;;;5034904;28;20033;-66
2023/06/09 11:22:49;;;;;;;8.38;4.05;;;31.60;39.80;;;;;;5033442;28;20041;-66
2023/06/09 11:25:15;;;;;;;7.68;4.47;;;31.60;39.70;;;;;;5033495;28;20060;-66
2023/06/09 11:27:41;;;;;;;9.20;4.68;;;31.60;39.70;;;;;;5027513;28;20045;-66
2023/06/09 11:30:18;;;;;;;7.72;4.47;;;31.60;39.50;;;;;;5032043;28;20029;-66
2023/06/09 11:33:11;;;;;;;6.80;4.13;;;31.60;39.50;;;;;;5023891;28;20077;-66
2023/06/09 11:35:44;;;;;;;7.25;4.20;;;31.70;39.40;;;;;;5003047;28;20042;-66
2023/06/09 11:38:18;;;;;;;7.65;4.45;;;31.70;39.50;;;;;;5018624;28;20115;-66
2023/06/09 11:40:52;;;;;;;7.35;4.30;;;31.80;39.40;;;;;;5035692;28;20057;-66
2023/06/09 11:43:21;;;;;;;6.93;3.88;;;31.80;39.30;;;;;;5031368;28;20395;-66
2023/06/09 11:45:48;;;;;;;6.82;3.70;;;31.80;39.40;;;;;;5032834;28;20180;-67
2023/06/09 11:48:15;;;;;;;7.05;4.05;;;31.80;39.30;;;;;;5034699;28;20100;-65
2023/06/09 11:50:43;;;;;;;7.25;4.35;;;31.80;39.00;;;;;;5033060;28;20033;-66
2023/06/09 11:53:11;;;;;;;6.90;3.85;;;31.70;38.60;;;;;;5022426;28;20116;-67
2023/06/09 11:55:37;;;;;;;8.10;4.97;;;31.70;38.60;;;;;;5028224;28;20037;-66
2023/06/09 11:58:05;;;;;;;7.20;3.88;;;31.60;38.40;;;;;;5017111;28;20037;-67
2023/06/09 12:00:33;;;;;;;7.45;3.97;;;31.50;38.30;;;;;;5034779;28;20065;-68
2023/06/09 12:03:00;;;;;;;9.05;4.35;;;31.50;38.40;;;;;;5033083;28;20434;-68
2023/06/09 12:05:26;;;;;;;6.40;3.35;;;31.40;38.40;;;;;;5034921;28;20124;-67
2023/06/09 12:07:53;;;;;;;7.30;4.43;;;31.30;38.40;;;;;;5033855;28;20427;-67
2023/06/09 12:10:22;;;;;;;6.70;4.30;;;31.30;38.50;;;;;;5035719;28;20355;-67
2023/06/09 12:12:50;;;;;;;7.70;4.28;;;31.20;38.50;;;;;;5033965;28;20033;-67
2023/06/09 12:15:17;;;;;;;7.10;4.03;;;31.10;38.70;;;;;;5017803;28;20029;-68
2023/06/09 12:17:47;;;;;;;7.30;4.30;;;30.90;38.70;;;;;;5029270;28;20036;-67
2023/06/09 12:20:25;;;;;;;10.13;4.45;;;30.70;38.80;;;;;;5051447;28;20025;-67
2023/06/09 12:22:55;;;;;;;8.85;4.03;;;30.60;38.50;;;;;;5034648;28;20052;-65
2023/06/09 12:25:29;;;;;;;8.13;3.95;;;30.50;38.50;;;;;;5030595;28;20024;-66
2023/06/09 12:27:58;;;;;;;6.88;4.30;;;30.40;38.70;;;;;;5033801;28;20021;-66
2023/06/09 12:30:37;;;;;;;7.93;4.03;;;30.40;38.50;;;;;;5035331;28;20026;-67
2023/06/09 12:33:13;;;;;;;6.60;4.20;;;30.40;38.10;;;;;;5029496;28;20057;-66
2023/06/09 12:35:44;;;;;;;8.43;4.07;;;30.40;38.10;;;;;;5036280;28;20087;-66
2023/06/09 12:38:17;;;;;;;7.10;3.90;;;30.30;38.10;;;;;;5028702;28;20040;-66
2023/06/09 12:40:54;;;;;;;8.13;4.70;;;30.30;38.10;;;;;;5035064;28;20135;-67
2023/06/09 12:43:25;;;;;;;8.95;3.67;;;30.20;38.00;;;;;;5033097;28;20056;-66
2023/06/09 12:45:56;;;;;;;6.68;3.95;;;30.20;38.10;;;;;;5036373;28;20041;-67
2023/06/09 12:48:22;;;;;;;6.47;3.50;;;30.20;38.00;;;;;;5029005;28;20072;-67
2023/06/09 12:50:48;;;;;;;7.72;4.13;;;30.10;38.00;;;;;;5028006;28;20402;-67